Relevés horaires Bierset (Belgique)


Relevés horaires à Bierset - Jeudi 28 Déc. 2023
Heure UTC1 Température [°C] Vent [km/h] Hum. [%] Pres.4 [hPa] Visi. [Km] Nébu. [octa] Préc.5 [mm] Cond.
2m. Res. Ros. Dir.2 Vit. Moy. Raf.3
23:00 9.1 6.4 4.9 SO 18.5 20.4 27.8 75 1012.8(-0.4/3h) 25 7/8 -- --
22:00 9.4 6.6 5.1 SO 20.4 20.4 27.8 74 1012.8(-0.4/3h) 25 7/8 -- --
21:00 9.4 7 5.0 SO 16.7 18.5 29.6 74 1012.9(-0.3/3h) 25 7/8 -- --
20:00 9.1 6.6 4.6 SSO 16.7 18.5 29.6 73 1013.2(0.1/3h) 25 7/8 -- --
19:00 8.7 5.9 4.4 SSO 18.5 18.5 25.9 74 1013.2(-0.5/3h) 25 7/8 -- --
18:00 8.8 6.2 4.3 SSO 16.7 20.4 27.8 73 1013.2(-0.5/3h) 25 7/8 0/12h
--
17:00 9.1 6.8 4.1 SSO 14.8 16.7 24.1 71 1013.3(-0.4/3h) 25 5/8 -- --
16:00 9.6 7.2 4.4 SSO 16.7 18.5 25.9 70 1013.7(-0.3/3h) 25 5/8 -- --
15:00 9.9 7.6 5.0 SO 16.7 20.4 27.8 72 1013.6(-1.0/3h) 25 7/8 -- --
14:00 10.3 7.9 4.5 SSO 18.5 20.4 27.8 67 1013.6(-1.0/3h) 25 7/8 -- --
13:00 10.5 8.2 4.9 SO 18.5 20.4 27.8 68 1013.9(-0.9/3h) 25 5/8 -- --
12:00 10.6 8.3 5.3 SO 18.5 20.4 29.6 70 1014.5(-0.4/3h) 25 5/8 0/6h
--
11:00 10.4 8 5.4 SO 18.5 20.4 29.6 71 1014.7(0.0/3h) 25 4/8 -- --
10:00 10.2 7.8 5.3 SSO 18.5 20.4 25.9 72 1014.8(0.6/3h) 25 4/8 -- --
09:00 9.4 7.2 5.4 SSO 14.8 16.7 22.2 76 1015(1.2/3h) 25 5/8 -- --
08:00 9.2 7.2 5.4 SO 13.0 14.8 22.2 77 1014.7(1.4/3h) 25 7/8 -- --
07:00 9.1 6.8 5.4 SSO 14.8 16.7 20.4 78 1014.3(1.3/3h) 25 6/8 -- --
06:00 9.0 6.5 5.4 SO 16.7 18.5 27.8 78 1013.8(0.5/3h) 25 6/8 0/12h
--
05:00 8.9 6.1 5.4 SO 18.5 18.5 25.9 79 1013.3(0.0/3h) 25 3/8 -- --
04:00 9.1 6.4 5.8 SSO 18.5 18.5 27.8 80 1013(0.1/3h) 25 2/8 -- --
03:00 8.9 6.6 5.8 SSO 14.8 18.5 25.9 81 1013.3(0.6/3h) 25 6/8 -- --
02:00 8.6 6.2 5.7 SSO 14.8 18.5 24.1 82 1013.3(1.5/3h) 25 6/8 -- --
01:00 8.7 6.1 5.6 SO 16.7 18.5 25.9 81 1013.1(1.6/3h) 25 6/8 -- --
00:00 8.8 6.2 5.0 SO 16.7 24.1 33.3 77 1012.6(1.9/3h) 25 6/8 0/6h
0/24h
--

1 Coordinated Universal Time. Actuellement il est 11:00 locale et 09:00 UTC.

2 Le vent souffle depuis la direction indiquée vers la direction oposée.

3 Les rafales max. sont disponible 40 min après l'heure du relevé.

4 Pour les stations d'altitude (plus de 600m) le géopotentiel du niveau le plus proche de la pression obligatoire est indiqué.

5 Les stations disposant d'un diffuseur peuvent indiquer "trace". Cela signifie que des précipitations ont touchés le sol mais que la quantité est inférieure à 0.1 mm.

Récapitulatif de la journée
Température [°C] Vent [km/h] Ensoleillement4 [h] Precipitations totale5 [mm] Pression [Hpa]
Min1 Max.2 Moy.3 Max. Min Max.
8.2 10.8 19.1 33.3 0 h 0 min 0 1012.6 1015.0

1 Température minimale relevée entre 18:00 UTC la veille et 18:00 UTC le jour donné.

2 Température maximale relevée entre 06:00 UTC le jour donné et 06:00 UTC le lendemain.

3 Vent moyen de la journée basé sur les relevés horaires.

4 Ensoleillement en heures relevé entre 06:00 UTC la veille et 06:00 UTC le jour donné.

5 Précipitations totales tombées entre 06:00 UTC la jour donné et 06:00 UTC le lendemain.

Graphiques horaires